createdAt,value
2019-02-24T00:00:46.305Z,41.97
2019-02-24T00:03:26.449Z,42.75
2019-02-24T00:05:57.570Z,43.73
2019-02-24T00:08:50.822Z,44.42
2019-02-24T00:11:21.024Z,44.66
2019-02-24T00:13:51.208Z,45.65
2019-02-24T00:16:21.414Z,44.24
2019-02-24T00:18:51.597Z,44.98
2019-02-24T00:21:21.796Z,45.51
2019-02-24T00:23:51.973Z,46.63
2019-02-24T00:26:22.174Z,45.78
2019-02-24T00:29:12.169Z,47.84
2019-02-24T00:32:01.658Z,47.76
2019-02-24T00:34:35.474Z,48.52
2019-02-24T00:37:11.788Z,47.86
2019-02-24T00:39:41.970Z,46.97
2019-02-24T00:42:12.178Z,46.62
2019-02-24T00:44:42.370Z,45.78
2019-02-24T00:47:15.970Z,46.45
2019-02-24T00:50:13.537Z,46.24
2019-02-24T00:52:49.606Z,46.14
2019-02-24T00:55:22.858Z,48.43
2019-02-24T00:57:53.052Z,47.96
2019-02-24T01:00:40.525Z,46.87
2019-02-24T01:03:10.732Z,48.00
2019-02-24T01:05:40.896Z,47.63
2019-02-24T01:08:11.110Z,49.26
2019-02-24T01:10:51.429Z,47.56
2019-02-24T01:13:21.616Z,46.73
2019-02-24T01:16:02.593Z,47.10
2019-02-24T01:18:39.729Z,46.95
2019-02-24T01:21:09.903Z,46.79
2019-02-24T01:23:44.341Z,45.59
2019-02-24T01:26:14.536Z,45.22
2019-02-24T01:29:17.373Z,45.41
2019-02-24T01:31:47.562Z,45.54
2019-02-24T01:34:17.764Z,44.24
2019-02-24T01:36:48.959Z,44.76
2019-02-24T01:39:19.169Z,43.93
2019-02-24T01:41:52.392Z,43.38
2019-02-24T01:44:22.579Z,42.75
2019-02-24T01:46:52.761Z,42.60
2019-02-24T01:49:23.023Z,41.81
2019-02-24T01:51:53.218Z,42.83
2019-02-24T01:54:23.398Z,42.87
2019-02-24T01:56:53.601Z,42.32
2019-02-24T01:59:23.786Z,42.79
2019-02-24T02:02:04.162Z,42.86
2019-02-24T02:04:50.374Z,43.67
2019-02-24T02:07:20.578Z,43.28
2019-02-24T02:09:50.807Z,44.24
2019-02-24T02:12:20.987Z,44.08
2019-02-24T02:14:52.172Z,45.11
2019-02-24T02:17:22.356Z,45.27
2019-02-24T02:19:54.468Z,43.76
2019-02-24T02:22:24.663Z,45.76
2019-02-24T02:24:54.924Z,47.33
2019-02-24T02:27:31.064Z,44.89
2019-02-24T02:30:01.241Z,44.87
2019-02-24T02:32:31.440Z,44.04
2019-02-24T02:35:01.610Z,45.00
2019-02-24T02:37:31.813Z,45.19
2019-02-24T02:40:08.587Z,45.54
2019-02-24T02:42:39.868Z,44.60
2019-02-24T02:45:29.710Z,47.26
2019-02-24T02:48:12.488Z,46.18
2019-02-24T02:50:42.676Z,46.89
2019-02-24T02:53:12.885Z,45.79
2019-02-24T02:55:43.080Z,46.77
2019-02-24T02:58:13.291Z,48.32
2019-02-24T03:00:47.408Z,48.71
2019-02-24T03:03:17.593Z,46.74
2019-02-24T03:05:55.140Z,46.58
2019-02-24T03:08:26.982Z,46.15
2019-02-24T03:10:57.173Z,45.46
2019-02-24T03:13:27.372Z,44.59
2019-02-24T03:15:58.561Z,44.12
2019-02-24T03:18:28.742Z,45.53
2019-02-24T03:21:04.821Z,46.78
2019-02-24T03:23:35.036Z,45.71
2019-02-24T03:26:05.228Z,46.68
2019-02-24T03:28:35.426Z,45.85
2019-02-24T03:31:05.661Z,45.81
2019-02-24T03:33:35.837Z,47.93
2019-02-24T03:36:06.046Z,48.00
2019-02-24T03:38:36.230Z,47.98
2019-02-24T03:41:06.434Z,48.21
2019-02-24T03:43:36.605Z,48.25
2019-02-24T03:46:13.790Z,48.16
2019-02-24T03:48:47.101Z,48.58
2019-02-24T03:51:17.307Z,48.04
2019-02-24T03:53:47.490Z,48.19
2019-02-24T03:56:17.697Z,50.31
2019-02-24T03:58:51.942Z,49.44
2019-02-24T04:01:32.218Z,48.60
2019-02-24T04:04:02.401Z,49.20
2019-02-24T04:07:10.598Z,48.19
2019-02-24T04:09:42.764Z,48.16
2019-02-24T04:12:12.977Z,46.92
2019-02-24T04:14:43.175Z,47.78
2019-02-24T04:17:13.364Z,47.14
2019-02-24T04:19:43.533Z,48.11
2019-02-24T04:22:13.745Z,47.10
2019-02-24T04:24:43.902Z,49.33
2019-02-24T04:27:21.216Z,48.99
2019-02-24T04:30:04.545Z,48.52
2019-02-24T04:32:34.775Z,49.12
2019-02-24T04:35:05.424Z,49.10
2019-02-24T04:37:35.611Z,47.98
2019-02-24T04:40:18.702Z,48.39
2019-02-24T04:42:48.924Z,47.64
2019-02-24T04:45:19.117Z,46.97
2019-02-24T04:48:13.549Z,47.73
2019-02-24T04:50:43.733Z,48.53
2019-02-24T04:53:13.922Z,46.94
2019-02-24T04:55:46.032Z,48.69
2019-02-24T04:58:16.228Z,49.34
2019-02-24T05:00:53.397Z,48.12
2019-02-24T05:03:23.589Z,48.74
2019-02-24T05:05:53.780Z,48.58
2019-02-24T05:08:23.963Z,48.61
2019-02-24T05:11:04.199Z,49.35
2019-02-24T05:13:34.390Z,49.38
2019-02-24T05:16:04.589Z,48.60
2019-02-24T05:18:34.762Z,48.26
2019-02-24T05:21:17.021Z,47.72
2019-02-24T05:23:47.213Z,47.76
2019-02-24T05:26:17.417Z,48.50
2019-02-24T05:28:47.617Z,48.69
2019-02-24T05:31:17.852Z,50.22
2019-02-24T05:33:54.982Z,47.01
2019-02-24T05:36:25.173Z,46.69
2019-02-24T05:39:05.104Z,45.63
2019-02-24T05:41:41.223Z,46.79
2019-02-24T05:44:11.413Z,46.15
2019-02-24T05:46:41.596Z,48.35
2019-02-24T05:49:11.796Z,49.82
2019-02-24T05:51:41.994Z,48.45
2019-02-24T05:54:12.161Z,50.45
2019-02-24T05:56:42.392Z,49.35
2019-02-24T05:59:12.560Z,48.27
2019-02-24T06:01:42.752Z,47.94
2019-02-24T06:04:13.868Z,48.23
2019-02-24T06:06:44.066Z,47.95
2019-02-24T06:09:14.266Z,47.65
2019-02-24T06:11:44.468Z,45.47
2019-02-24T06:14:14.647Z,44.85
2019-02-24T06:16:44.853Z,45.62
2019-02-24T06:19:15.052Z,45.53
2019-02-24T06:21:45.244Z,46.87
2019-02-24T06:24:15.445Z,46.34
2019-02-24T06:26:47.615Z,46.44
2019-02-24T06:29:21.628Z,45.00
2019-02-24T06:32:35.407Z,44.26
2019-02-24T06:35:07.431Z,42.55
2019-02-24T06:37:37.634Z,40.82
2019-02-24T06:40:08.171Z,41.52
2019-02-24T06:42:43.204Z,40.59
2019-02-24T06:45:13.401Z,39.62
2019-02-24T06:47:43.610Z,39.94
2019-02-24T06:50:15.781Z,38.22
2019-02-24T06:52:52.671Z,38.16
2019-02-24T06:55:28.814Z,41.12
2019-02-24T06:57:59.012Z,41.40
2019-02-24T07:00:29.206Z,42.54
2019-02-24T07:03:05.115Z,43.44
2019-02-24T07:05:35.702Z,42.73
2019-02-24T07:08:05.902Z,43.35
2019-02-24T07:10:37.398Z,41.25
2019-02-24T07:13:08.823Z,40.57
2019-02-24T07:15:39.012Z,40.42
2019-02-24T07:18:09.282Z,39.81
2019-02-24T07:20:49.969Z,37.67
2019-02-24T07:23:23.551Z,38.01
2019-02-24T07:25:53.767Z,36.91
2019-02-24T07:28:24.895Z,36.46
2019-02-24T07:30:55.072Z,35.91
2019-02-24T07:33:35.733Z,35.48
2019-02-24T07:36:05.915Z,35.55
2019-02-24T07:39:06.582Z,36.30
2019-02-24T07:41:56.024Z,33.65
2019-02-24T07:44:26.236Z,30.25
2019-02-24T07:46:56.418Z,28.59
2019-02-24T07:49:26.616Z,29.04
2019-02-24T07:52:03.123Z,30.79
2019-02-24T07:54:35.320Z,27.14
2019-02-24T07:57:07.441Z,27.37
2019-02-24T07:59:39.671Z,29.38
2019-02-24T08:02:12.922Z,27.54
2019-02-24T08:04:44.187Z,30.65
2019-02-24T08:07:22.654Z,29.25
2019-02-24T08:09:52.866Z,28.51
2019-02-24T08:12:28.261Z,28.89
2019-02-24T08:14:58.499Z,28.28
2019-02-24T08:17:28.704Z,28.66
2019-02-24T08:19:58.904Z,26.44
2019-02-24T08:22:29.108Z,25.96
2019-02-24T08:25:10.339Z,26.12
2019-02-24T08:27:40.520Z,26.63
2019-02-24T08:30:12.515Z,26.01
2019-02-24T08:32:48.429Z,24.88
2019-02-24T08:35:19.689Z,23.92
2019-02-24T08:37:49.886Z,20.64
2019-02-24T08:40:20.078Z,22.22
2019-02-24T08:43:10.274Z,21.92
2019-02-24T08:45:42.508Z,21.93
2019-02-24T08:48:12.781Z,21.67
2019-02-24T08:50:42.966Z,19.19
2019-02-24T08:53:27.117Z,20.53
2019-02-24T08:55:58.147Z,21.41
2019-02-24T08:58:28.398Z,20.86
2019-02-24T09:01:03.263Z,20.11
2019-02-24T09:03:34.502Z,21.15
2019-02-24T09:06:10.426Z,20.88
2019-02-24T09:08:44.150Z,22.25
2019-02-24T09:11:29.125Z,21.57
2019-02-24T09:14:10.943Z,20.43
2019-02-24T09:16:44.926Z,21.47
2019-02-24T09:19:23.466Z,21.03
2019-02-24T09:21:59.376Z,20.35
2019-02-24T09:24:40.697Z,20.19
2019-02-24T09:27:11.815Z,20.19
2019-02-24T09:29:42.916Z,20.96
2019-02-24T09:32:17.324Z,19.92
2019-02-24T09:34:47.573Z,20.10
2019-02-24T09:37:22.529Z,20.01
2019-02-24T09:40:28.285Z,19.57
2019-02-24T09:43:04.057Z,19.36
2019-02-24T09:45:34.250Z,20.33
2019-02-24T09:48:08.470Z,20.69
2019-02-24T09:50:41.141Z,20.45
2019-02-24T09:53:12.226Z,21.40
2019-02-24T09:55:50.578Z,20.57
2019-02-24T09:58:20.782Z,20.17
2019-02-24T10:00:50.953Z,19.30
2019-02-24T10:03:22.084Z,20.68
2019-02-24T10:05:52.272Z,18.54
2019-02-24T10:08:22.465Z,18.75
2019-02-24T10:10:52.679Z,19.77
2019-02-24T10:13:37.249Z,18.91
2019-02-24T10:16:10.863Z,18.79
2019-02-24T10:18:52.602Z,18.38
2019-02-24T10:21:30.973Z,19.37
2019-02-24T10:24:03.105Z,18.82
2019-02-24T10:26:35.204Z,18.54
2019-02-24T10:29:10.964Z,19.46
2019-02-24T10:31:41.141Z,18.95
2019-02-24T10:34:12.279Z,18.84
2019-02-24T10:36:42.500Z,18.13
2019-02-24T10:39:13.063Z,17.31
2019-02-24T10:41:43.248Z,19.25
2019-02-24T10:44:13.425Z,18.40
2019-02-24T10:46:43.611Z,18.40
2019-02-24T10:49:15.725Z,18.95
2019-02-24T10:51:49.248Z,18.21
2019-02-24T10:54:20.334Z,17.40
2019-02-24T10:57:03.464Z,17.73
2019-02-24T10:59:33.671Z,17.34
2019-02-24T11:02:12.860Z,17.37
2019-02-24T11:04:50.095Z,16.84
2019-02-24T11:07:21.338Z,17.01
2019-02-24T11:09:51.565Z,16.39
2019-02-24T11:12:21.757Z,17.47
2019-02-24T11:15:04.186Z,17.51
2019-02-24T11:17:40.288Z,17.54
2019-02-24T11:20:15.878Z,16.53
2019-02-24T11:22:59.629Z,18.07
2019-02-24T11:25:39.606Z,17.08
2019-02-24T11:28:09.799Z,16.37
2019-02-24T11:30:47.256Z,16.09
2019-02-24T11:33:17.431Z,17.03
2019-02-24T11:35:52.645Z,16.12
2019-02-24T11:38:33.109Z,15.66
2019-02-24T11:41:17.666Z,16.01
2019-02-24T11:43:59.867Z,16.47
2019-02-24T11:46:31.094Z,16.19
2019-02-24T11:49:08.038Z,16.15
2019-02-24T11:51:42.536Z,17.07
2019-02-24T11:54:12.889Z,16.26
2019-02-24T11:56:48.998Z,15.84
2019-02-24T11:59:31.492Z,15.11
2019-02-24T12:02:01.687Z,15.25
2019-02-24T12:04:31.959Z,16.20
2019-02-24T12:07:04.126Z,16.47
2019-02-24T12:09:45.214Z,15.30
2019-02-24T12:12:21.297Z,15.76
2019-02-24T12:14:53.384Z,15.53
2019-02-24T12:17:33.339Z,15.48
2019-02-24T12:20:03.786Z,16.15
2019-02-24T12:22:41.897Z,16.24
2019-02-24T12:25:15.472Z,16.30
2019-02-24T12:27:45.677Z,15.11
2019-02-24T12:30:19.492Z,17.09
2019-02-24T12:32:49.796Z,15.51
2019-02-24T12:35:19.984Z,14.97
2019-02-24T12:37:50.181Z,15.66
2019-02-24T12:40:20.390Z,15.20
2019-02-24T12:43:09.186Z,14.63
2019-02-24T12:45:40.306Z,15.24
2019-02-24T12:48:10.524Z,14.55
2019-02-24T12:50:42.851Z,14.08
2019-02-24T12:53:15.730Z,14.42
2019-02-24T12:55:45.979Z,14.57
2019-02-24T12:58:28.871Z,14.34
2019-02-24T13:00:59.114Z,14.43
2019-02-24T13:03:29.359Z,14.74
2019-02-24T13:05:59.530Z,14.43
2019-02-24T13:08:50.303Z,13.98
2019-02-24T13:11:20.494Z,14.81
2019-02-24T13:14:01.726Z,14.41
2019-02-24T13:16:32.825Z,14.56
2019-02-24T13:19:08.803Z,14.37
2019-02-24T13:21:39.906Z,14.42
2019-02-24T13:24:22.200Z,13.87
2019-02-24T13:26:58.745Z,14.08
2019-02-24T13:29:39.861Z,14.54
2019-02-24T13:32:14.790Z,13.76
2019-02-24T13:34:42.237Z,13.63
2019-02-24T13:37:12.426Z,13.91
2019-02-24T13:39:42.614Z,14.40
2019-02-24T13:42:18.043Z,14.18
2019-02-24T13:44:52.399Z,13.85
2019-02-24T13:47:28.504Z,13.92
2019-02-24T13:50:06.387Z,14.81
2019-02-24T13:52:49.974Z,14.40
2019-02-24T13:55:22.111Z,13.93
2019-02-24T13:57:52.305Z,14.85
2019-02-24T14:00:33.000Z,13.90
2019-02-24T14:03:03.214Z,14.08
2019-02-24T14:05:39.655Z,14.19
2019-02-24T14:08:12.464Z,13.91
2019-02-24T14:10:42.681Z,14.20
2019-02-24T14:13:22.233Z,13.88
2019-02-24T14:16:09.104Z,13.51
2019-02-24T14:18:40.218Z,14.11
2019-02-24T14:21:13.769Z,14.15
2019-02-24T14:23:54.778Z,13.87
2019-02-24T14:26:37.980Z,13.50
2019-02-24T14:29:13.603Z,13.84
2019-02-24T14:31:43.798Z,13.94
2019-02-24T14:34:21.358Z,13.64
2019-02-24T14:36:51.550Z,13.99
2019-02-24T14:39:22.298Z,13.81
2019-02-24T14:41:52.504Z,14.27
2019-02-24T14:44:22.678Z,13.85
2019-02-24T14:46:52.875Z,14.62
2019-02-24T14:49:23.064Z,14.13
2019-02-24T14:51:58.281Z,13.90
2019-02-24T14:54:35.231Z,13.90
2019-02-24T14:57:11.312Z,14.15
2019-02-24T14:59:41.492Z,14.26
2019-02-24T15:02:11.693Z,14.86
2019-02-24T15:04:45.361Z,15.56
2019-02-24T15:07:15.555Z,13.73
2019-02-24T15:09:57.808Z,13.66
2019-02-24T15:12:29.932Z,12.03
2019-02-24T15:15:06.249Z,13.09
2019-02-24T15:17:49.775Z,13.19
2019-02-24T15:20:20.892Z,12.88
2019-02-24T15:22:51.337Z,12.82
2019-02-24T15:25:21.513Z,13.65
2019-02-24T15:27:51.726Z,12.39
2019-02-24T15:30:32.691Z,13.48
2019-02-24T15:33:02.891Z,14.06
2019-02-24T15:35:34.016Z,14.69
2019-02-24T15:38:05.202Z,14.92
2019-02-24T15:40:37.410Z,14.63
2019-02-24T15:43:07.614Z,15.22
2019-02-24T15:45:37.815Z,15.28
2019-02-24T15:48:09.905Z,15.02
2019-02-24T15:50:55.472Z,15.63
2019-02-24T15:53:27.579Z,15.94
2019-02-24T15:56:09.253Z,15.96
2019-02-24T15:58:43.632Z,15.21
2019-02-24T16:01:15.003Z,15.06
2019-02-24T16:03:45.195Z,15.13
2019-02-24T16:06:15.897Z,15.05
2019-02-24T16:08:47.054Z,15.06
2019-02-24T16:11:18.160Z,14.94
2019-02-24T16:14:13.427Z,17.00
2019-02-24T16:16:44.521Z,20.17
2019-02-24T16:19:14.732Z,20.38
2019-02-24T16:21:49.702Z,19.61
2019-02-24T16:24:32.998Z,20.29
2019-02-24T16:27:05.085Z,18.90
2019-02-24T16:29:41.021Z,19.50
2019-02-24T16:32:16.889Z,18.72
2019-02-24T16:34:47.095Z,20.57
2019-02-24T16:37:21.619Z,21.85
2019-02-24T16:39:52.766Z,20.89
2019-02-24T16:42:22.962Z,20.67
2019-02-24T16:44:53.163Z,22.99
2019-02-24T16:47:24.337Z,22.84
2019-02-24T16:49:54.533Z,22.87
2019-02-24T16:52:24.745Z,23.39
2019-02-24T16:54:58.136Z,24.60
2019-02-24T16:57:31.358Z,24.29
2019-02-24T17:00:01.570Z,25.12
2019-02-24T17:02:31.746Z,25.02
2019-02-24T17:05:01.951Z,25.28
2019-02-24T17:07:32.189Z,26.58
2019-02-24T17:10:15.365Z,26.33
2019-02-24T17:12:46.605Z,27.31
2019-02-24T17:15:16.889Z,27.54
2019-02-24T17:17:48.013Z,27.38
2019-02-24T17:20:22.477Z,27.17
2019-02-24T17:22:59.769Z,27.93
2019-02-24T17:25:45.153Z,27.40
2019-02-24T17:28:15.340Z,26.75
2019-02-24T17:30:46.469Z,25.97
2019-02-24T17:33:16.695Z,26.67
2019-02-24T17:35:47.828Z,27.26
2019-02-24T17:38:18.043Z,26.85
2019-02-24T17:40:48.250Z,28.20
2019-02-24T17:43:18.433Z,29.05
2019-02-24T17:45:49.570Z,29.00
2019-02-24T17:48:21.697Z,28.70
2019-02-24T17:50:51.900Z,28.44
2019-02-24T17:53:24.087Z,29.92
2019-02-24T17:56:00.080Z,30.42
2019-02-24T17:58:35.308Z,30.42
2019-02-24T18:01:06.084Z,30.20
2019-02-24T18:03:39.686Z,29.91
2019-02-24T18:06:12.004Z,30.12
2019-02-24T18:08:42.549Z,29.52
2019-02-24T18:11:25.219Z,29.84
2019-02-24T18:13:55.424Z,29.39
2019-02-24T18:16:25.624Z,30.33
2019-02-24T18:19:03.036Z,30.75
2019-02-24T18:21:37.082Z,27.48
2019-02-24T18:24:07.294Z,29.72
2019-02-24T18:26:37.494Z,29.97
2019-02-24T18:29:11.295Z,30.03
2019-02-24T18:31:42.355Z,30.44
2019-02-24T18:34:12.698Z,30.38
2019-02-24T18:36:42.950Z,31.20
2019-02-24T18:39:15.124Z,31.09
2019-02-24T18:41:46.262Z,30.86
2019-02-24T18:44:17.421Z,29.97
2019-02-24T18:46:47.667Z,31.23
2019-02-24T18:49:18.929Z,31.71
2019-02-24T18:51:54.323Z,31.72
2019-02-24T18:54:34.352Z,31.96
2019-02-24T18:56:58.593Z,31.93
2019-02-24T18:59:28.804Z,31.58
2019-02-24T19:05:06.819Z,31.17
2019-02-24T19:07:39.025Z,32.33
2019-02-24T19:10:21.237Z,31.56
2019-02-24T19:12:53.330Z,30.17
2019-02-24T19:15:24.666Z,31.07
2019-02-24T19:17:54.875Z,31.38
2019-02-24T19:20:25.608Z,31.58
2019-02-24T19:23:01.207Z,31.45
2019-02-24T19:25:31.387Z,31.51
2019-02-24T19:28:01.595Z,32.32
2019-02-24T19:30:31.780Z,32.58
2019-02-24T19:33:02.026Z,33.08
2019-02-24T19:35:32.218Z,33.50
2019-02-24T19:38:02.459Z,33.22
2019-02-24T19:40:32.914Z,34.03
2019-02-24T19:43:03.572Z,33.86
2019-02-24T19:45:34.883Z,34.82
2019-02-24T19:48:07.416Z,34.64
2019-02-24T19:50:38.602Z,35.13
2019-02-24T19:53:08.810Z,36.08
2019-02-24T19:55:41.045Z,35.90
2019-02-24T19:58:11.268Z,36.49
2019-02-24T20:00:43.466Z,36.26
2019-02-24T20:06:43.413Z,36.84
2019-02-24T20:09:13.624Z,37.76
2019-02-24T20:11:43.998Z,36.71
2019-02-24T20:14:14.220Z,37.42
2019-02-24T20:17:04.089Z,37.33
2019-02-24T20:19:34.976Z,37.67
2019-02-24T20:22:18.148Z,36.77
2019-02-24T20:24:53.125Z,36.36
2019-02-24T20:27:33.668Z,36.26
2019-02-24T20:30:17.968Z,37.19
2019-02-24T20:33:24.271Z,39.05
2019-02-24T20:35:54.461Z,38.03
2019-02-24T20:38:34.531Z,38.31
2019-02-24T20:41:05.107Z,38.22
2019-02-24T20:43:38.382Z,36.99
2019-02-24T20:46:15.364Z,37.42
2019-02-24T20:48:51.476Z,38.09
2019-02-24T20:51:22.304Z,37.79
2019-02-24T20:53:52.510Z,38.30
2019-02-24T20:56:26.430Z,38.42
2019-02-24T20:58:57.518Z,38.23
2019-02-24T21:01:35.511Z,37.87
2019-02-24T21:04:16.271Z,38.86
2019-02-24T21:06:48.519Z,39.07
2019-02-24T21:09:32.819Z,40.45
2019-02-24T21:12:03.294Z,39.89
2019-02-24T21:14:34.657Z,39.55
2019-02-24T21:17:05.035Z,39.24
2019-02-24T21:19:37.546Z,39.20
2019-02-24T21:22:07.820Z,39.34
2019-02-24T21:24:44.036Z,40.28
2019-02-24T21:27:15.382Z,40.20
2019-02-24T21:29:45.629Z,40.00
2019-02-24T21:32:18.071Z,40.53
2019-02-24T21:34:48.269Z,39.72
2019-02-24T21:37:19.527Z,40.88
2019-02-24T21:39:50.778Z,40.37
2019-02-24T21:42:26.940Z,39.92
2019-02-24T21:44:57.305Z,39.96
2019-02-24T21:47:27.529Z,40.97
2019-02-24T21:49:57.726Z,39.94
2019-02-24T21:52:38.268Z,40.70
2019-02-24T21:55:44.546Z,41.12
2019-02-24T21:58:34.826Z,42.53
2019-02-24T22:01:06.079Z,40.75
2019-02-24T22:03:52.302Z,40.83
2019-02-24T22:06:28.940Z,40.90
2019-02-24T22:09:02.393Z,42.07
2019-02-24T22:11:34.458Z,40.69
2019-02-24T22:14:06.317Z,40.96
2019-02-24T22:16:47.265Z,41.18
2019-02-24T22:19:17.606Z,41.85
2019-02-24T22:22:02.819Z,40.24
2019-02-24T22:24:33.026Z,40.29
2019-02-24T22:27:09.190Z,42.19
2019-02-24T22:29:39.675Z,43.34
2019-02-24T22:32:33.032Z,42.86
2019-02-24T22:35:08.065Z,42.91
2019-02-24T22:37:44.447Z,41.55
2019-02-24T22:40:21.682Z,43.19
2019-02-24T22:42:58.645Z,42.59
2019-02-24T22:45:28.861Z,42.65
2019-02-24T22:48:00.100Z,41.58
2019-02-24T22:50:30.311Z,41.12
2019-02-24T22:53:00.499Z,41.96
2019-02-24T22:55:39.684Z,42.22
2019-02-24T22:58:11.792Z,41.93
2019-02-24T23:00:52.556Z,43.53
2019-02-24T23:03:36.382Z,45.31
2019-02-24T23:06:15.260Z,45.01
2019-02-24T23:08:54.798Z,45.05
2019-02-24T23:11:27.951Z,44.53
2019-02-24T23:14:16.053Z,43.32
2019-02-24T23:16:46.284Z,43.59
2019-02-24T23:19:16.455Z,43.66
2019-02-24T23:21:59.042Z,43.66
2019-02-24T23:24:29.219Z,43.22
2019-02-24T23:27:08.973Z,45.14
2019-02-24T23:29:57.523Z,44.66
2019-02-24T23:32:27.725Z,45.01
2019-02-24T23:35:00.886Z,45.64
2019-02-24T23:37:44.158Z,45.73
2019-02-24T23:40:38.742Z,46.11
2019-02-24T23:43:09.525Z,45.60
2019-02-24T23:45:39.760Z,44.96
2019-02-24T23:48:09.940Z,45.49
2019-02-24T23:50:40.137Z,46.41
2019-02-24T23:53:23.142Z,46.23
2019-02-24T23:56:08.003Z,46.05
2019-02-24T23:58:43.132Z,46.51
